Terminal Aerodrome Forecast
Issued by NWS Charleston, WV

Current Version | Previous Version | Graphics & Text | Print | Product List | Glossary On
Versions: 1 2 3 4 5 6 7 8 9 10 11 12 13 14 15 16 17 18 19 20 21 22 23 24 25 26 27 28
582
FTUS41 KRLX 162334
TAFBKW
TAF
KBKW 162334Z 1700/1724 29014G20KT 4SM -SN OVC025
      TEMPO 1700/1702 1SM -SN OVC015
     FM170200 29014G20KT 3SM -SN OVC018
     FM170700 28013G20KT P6SM BKN020
     FM171700 28015G22KT P6SM SCT025
     FM172200 28014G20KT P6SM FEW040 WS002/28005KT
     FM172300 29012KT P6SM FEW250 WS005/28015KT=

USA.gov is the U.S. government's official web portal to all federal, state and local government web resources and services.